Thunder radar more information blitzortung!


Radar de pluja more information rain snow radar


Visita la nostra xarxa de llocs de meteo:

Template documentation
and downloads

And another site



No particular awareness of the weather is required.    There are no Weather-warnings

Pagina Historial Weather Underground text

Diari Resum January 21, 2018 Unitats:  Tant    Imperial   Mètric
« Previous Dia
SegĂźent Dia »
Diari Setmana Mensual Anual Personalitzada
  Maxima: Minima: Media:
Temperatura: TemperatureC °F /  -17.8 °C 11.9 °F /  -11.2 °C 14.5 °F /  -9.7 °C
Punt de rosada: DewpointC °F /  -17.8 °C 4.8 °F /  -15.1 °C 7 °F /  -13.9 °C
Humitat: Humidity % 50 % 61 %
Wind Speed: WindSpeedKMH mph /  0 km/h - 6.9 mph /  11.1 km/h
RĂ fegues de vent: WindSpeedGustKMH mph /  0 km/h - -
Vent:- - SSW
Pression baro: PressurehPa in /  0 hPa 1015.8 in /  34395 hPa -
Precipitacions: 0.0 in /  0 mm    
Historical Graphs
 
 
Dades de taula per January 21, 2018
Temps Temperatura Punt de rosada Pression baro Vent Wind Speed RĂ fegues de vent Humitat Rainfall Rate (Hourly)
TemperatureC °F /  -17.8 °C DewpointC °F /  -17.8 °C PressurehPa in /  0 hPa Calm     Humidity % HourlyPrecipMM in /  0 mm
00:03 12.1 °F /  -11.1 °C 4.8 °F /  -15.1 °C 1016.8 in /  34428.8 hPa West 5.6 mph /  9 km/h 5.6 mph /  9 km/h 61 % 0.0 in /  0 mm
00:08 12.2 °F /  -11 °C 4.9 °F /  -15.1 °C 1016.8 in /  34428.8 hPa WSW 5.6 mph /  9 km/h 5.6 mph /  9 km/h 61 % 0.0 in /  0 mm
00:13 12.2 °F /  -11 °C 4.9 °F /  -15.1 °C 1016.8 in /  34428.8 hPa WSW 6.1 mph /  9.8 km/h 6.1 mph /  9.8 km/h 61 % 0.0 in /  0 mm
00:18 12.2 °F /  -11 °C 4.9 °F /  -15.1 °C 1016.8 in /  34428.8 hPa WSW 5.6 mph /  9 km/h 5.6 mph /  9 km/h 61 % 0.0 in /  0 mm
00:23 12.1 °F /  -11.1 °C 5.1 °F /  -14.9 °C 1016.8 in /  34428.8 hPa Calm     62 % 0.0 in /  0 mm
00:28 12.1 °F /  -11.1 °C 5.1 °F /  -14.9 °C 1016.8 in /  34428.8 hPa East 1.9 mph /  3.1 km/h   62 % 0.0 in /  0 mm
00:33 12.2 °F /  -11 °C 5.1 °F /  -14.9 °C 1016.8 in /  34428.8 hPa ESE 1.9 mph /  3.1 km/h 1.9 mph /  3.1 km/h 62 % 0.0 in /  0 mm
00:38 12.1 °F /  -11.1 °C 5.3 °F /  -14.8 °C 1016.8 in /  34428.8 hPa ESE 7.4 mph /  11.9 km/h 7.4 mph /  11.9 km/h 63 % 0.0 in /  0 mm
00:43 12.1 °F /  -11.1 °C 5.3 °F /  -14.8 °C 1016.8 in /  34428.8 hPa South 1.9 mph /  3.1 km/h 2.3 mph /  3.7 km/h 63 % 0.0 in /  0 mm
00:48 12.0 °F /  -11.1 °C 4.9 °F /  -15.1 °C 1017.8 in /  34462.7 hPa WSW 3.7 mph /  6 km/h 3.7 mph /  6 km/h 62 % 0.0 in /  0 mm
00:53 12.0 °F /  -11.1 °C 4.9 °F /  -15.1 °C 1017.8 in /  34462.7 hPa NE 3.7 mph /  6 km/h 3.7 mph /  6 km/h 62 % 0.0 in /  0 mm
00:58 12.1 °F /  -11.1 °C 5.3 °F /  -14.8 °C 1017.8 in /  34462.7 hPa NW 3.7 mph /  6 km/h 3.9 mph /  6.3 km/h 63 % 0.0 in /  0 mm
01:03 12.1 °F /  -11.1 °C 5.1 °F /  -14.9 °C 1016.8 in /  34428.8 hPa WNW 3.7 mph /  6 km/h 3.7 mph /  6 km/h 62 % 0.0 in /  0 mm
01:08 12.1 °F /  -11.1 °C 5.1 °F /  -14.9 °C 1016.8 in /  34428.8 hPa WSW 6.1 mph /  9.8 km/h 6.1 mph /  9.8 km/h 62 % 0.0 in /  0 mm
01:13 12.2 °F /  -11 °C 5.3 °F /  -14.8 °C 1016.8 in /  34428.8 hPa ENE 3.7 mph /  6 km/h 3.7 mph /  6 km/h 63 % 0.0 in /  0 mm
01:18 12.2 °F /  -11 °C 5.1 °F /  -14.9 °C 1016.8 in /  34428.8 hPa SSW 7.4 mph /  11.9 km/h 7.4 mph /  11.9 km/h 62 % 0.0 in /  0 mm
01:23 12.2 °F /  -11 °C 5.3 °F /  -14.8 °C 1016.8 in /  34428.8 hPa West 3.7 mph /  6 km/h 3.7 mph /  6 km/h 63 % 0.0 in /  0 mm
01:28 12.2 °F /  -11 °C 5.3 °F /  -14.8 °C 1016.8 in /  34428.8 hPa SW 3.9 mph /  6.3 km/h 3.9 mph /  6.3 km/h 63 % 0.0 in /  0 mm
01:33 12.1 °F /  -11.1 °C 5.3 °F /  -14.8 °C 1016.8 in /  34428.8 hPa NW 3.7 mph /  6 km/h 3.7 mph /  6 km/h 63 % 0.0 in /  0 mm
01:38 12.1 °F /  -11.1 °C 5.3 °F /  -14.8 °C 1016.8 in /  34428.8 hPa West 5.6 mph /  9 km/h 5.6 mph /  9 km/h 63 % 0.0 in /  0 mm
01:48 12.2 °F /  -11 °C 5.3 °F /  -14.8 °C 1016.8 in /  34428.8 hPa WSW 5.6 mph /  9 km/h 5.6 mph /  9 km/h 63 % 0.0 in /  0 mm
01:53 12.2 °F /  -11 °C 5.3 °F /  -14.8 °C 1016.8 in /  34428.8 hPa SW 9.5 mph /  15.3 km/h 9.5 mph /  15.3 km/h 63 % 0.0 in /  0 mm
01:58 12.2 °F /  -11 °C 5.3 °F /  -14.8 °C 1016.8 in /  34428.8 hPa WSW 3.7 mph /  6 km/h 3.7 mph /  6 km/h 63 % 0.0 in /  0 mm
02:03 12.1 °F /  -11.1 °C 5.3 °F /  -14.8 °C 1016.8 in /  34428.8 hPa WNW 5.6 mph /  9 km/h 5.6 mph /  9 km/h 63 % 0.0 in /  0 mm
02:08 12.2 °F /  -11 °C 5.3 °F /  -14.8 °C 1016.8 in /  34428.8 hPa WNW 5.0 mph /  8 km/h 5.0 mph /  8 km/h 63 % 0.0 in /  0 mm
02:13 12.2 °F /  -11 °C 5.3 °F /  -14.8 °C 1016.8 in /  34428.8 hPa WSW 7.4 mph /  11.9 km/h 7.4 mph /  11.9 km/h 63 % 0.0 in /  0 mm
02:18 12.2 °F /  -11 °C 5.3 °F /  -14.8 °C 1015.8 in /  34395 hPa East 7.4 mph /  11.9 km/h 7.4 mph /  11.9 km/h 63 % 0.0 in /  0 mm
02:23 12.0 °F /  -11.1 °C 5.2 °F /  -14.9 °C 1015.8 in /  34395 hPa WNW 5.6 mph /  9 km/h 5.6 mph /  9 km/h 63 % 0.0 in /  0 mm
02:28 12.0 °F /  -11.1 °C 5.2 °F /  -14.9 °C 1015.8 in /  34395 hPa WNW 5.6 mph /  9 km/h 5.6 mph /  9 km/h 63 % 0.0 in /  0 mm
02:33 12.2 °F /  -11 °C 5.6 °F /  -14.7 °C 1015.8 in /  34395 hPa WNW 9.3 mph /  15 km/h 9.3 mph /  15 km/h 64 % 0.0 in /  0 mm
02:38 12.3 °F /  -10.9 °C 5.7 °F /  -14.6 °C 1015.8 in /  34395 hPa WSW 13.0 mph /  20.9 km/h 13.0 mph /  20.9 km/h 64 % 0.0 in /  0 mm
02:43 12.4 °F /  -10.9 °C 5.8 °F /  -14.6 °C 1015.8 in /  34395 hPa SW 11.1 mph /  17.9 km/h 11.1 mph /  17.9 km/h 64 % 0.0 in /  0 mm
02:48 12.5 °F /  -10.8 °C 5.9 °F /  -14.5 °C 1015.8 in /  34395 hPa SSW 16.7 mph /  26.9 km/h 16.7 mph /  26.9 km/h 64 % 0.0 in /  0 mm
02:53 12.5 °F /  -10.8 °C 5.9 °F /  -14.5 °C 1015.8 in /  34395 hPa WNW 7.4 mph /  11.9 km/h 7.4 mph /  11.9 km/h 64 % 0.0 in /  0 mm
02:58 12.4 °F /  -10.9 °C 5.8 °F /  -14.6 °C 1015.8 in /  34395 hPa West 9.0 mph /  14.5 km/h 9.0 mph /  14.5 km/h 64 % 0.0 in /  0 mm
03:03 12.4 °F /  -10.9 °C 5.8 °F /  -14.6 °C 1016.8 in /  34428.8 hPa WNW 7.4 mph /  11.9 km/h 7.4 mph /  11.9 km/h 64 % 0.0 in /  0 mm
03:08 12.5 °F /  -10.8 °C 5.9 °F /  -14.5 °C 1016.8 in /  34428.8 hPa SSW 9.5 mph /  15.3 km/h 9.5 mph /  15.3 km/h 64 % 0.0 in /  0 mm
03:13 12.6 °F /  -10.8 °C 5.9 °F /  -14.5 °C 1016.8 in /  34428.8 hPa SW 7.4 mph /  11.9 km/h 7.4 mph /  11.9 km/h 64 % 0.0 in /  0 mm
03:18 12.7 °F /  -10.7 °C 6.1 °F /  -14.4 °C 1016.8 in /  34428.8 hPa SW 7.4 mph /  11.9 km/h 7.4 mph /  11.9 km/h 64 % 0.0 in /  0 mm
03:23 12.7 °F /  -10.7 °C 6.1 °F /  -14.4 °C 1016.8 in /  34428.8 hPa NNW 9.3 mph /  15 km/h 9.3 mph /  15 km/h 64 % 0.0 in /  0 mm
03:28 12.7 °F /  -10.7 °C 6.1 °F /  -14.4 °C 1016.8 in /  34428.8 hPa East 3.9 mph /  6.3 km/h 3.9 mph /  6.3 km/h 64 % 0.0 in /  0 mm
03:33 12.8 °F /  -10.7 °C 6.2 °F /  -14.3 °C 1016.8 in /  34428.8 hPa ESE 7.4 mph /  11.9 km/h 7.4 mph /  11.9 km/h 64 % 0.0 in /  0 mm
03:38 12.7 °F /  -10.7 °C 6.1 °F /  -14.4 °C 1016.8 in /  34428.8 hPa NE 7.4 mph /  11.9 km/h 7.4 mph /  11.9 km/h 64 % 0.0 in /  0 mm
03:43 12.8 °F /  -10.7 °C 6.2 °F /  -14.3 °C 1016.8 in /  34428.8 hPa ESE 5.6 mph /  9 km/h 5.6 mph /  9 km/h 64 % 0.0 in /  0 mm
03:48 12.6 °F /  -10.8 °C 5.9 °F /  -14.5 °C 1016.8 in /  34428.8 hPa ESE 3.7 mph /  6 km/h   64 % 0.0 in /  0 mm
03:53 12.5 °F /  -10.8 °C 5.9 °F /  -14.5 °C 1016.8 in /  34428.8 hPa WNW 3.7 mph /  6 km/h 3.7 mph /  6 km/h 64 % 0.0 in /  0 mm
03:58 12.5 °F /  -10.8 °C 5.9 °F /  -14.5 °C 1016.8 in /  34428.8 hPa WSW 3.7 mph /  6 km/h 3.7 mph /  6 km/h 64 % 0.0 in /  0 mm
04:03 12.5 °F /  -10.8 °C 5.9 °F /  -14.5 °C 1016.8 in /  34428.8 hPa WNW 9.3 mph /  15 km/h 9.3 mph /  15 km/h 64 % 0.0 in /  0 mm
04:08 12.5 °F /  -10.8 °C 5.9 °F /  -14.5 °C 1016.8 in /  34428.8 hPa WNW 3.7 mph /  6 km/h 3.7 mph /  6 km/h 64 % 0.0 in /  0 mm
04:13 12.5 °F /  -10.8 °C 5.9 °F /  -14.5 °C 1016.8 in /  34428.8 hPa SSW 6.4 mph /  10.3 km/h 6.4 mph /  10.3 km/h 64 % 0.0 in /  0 mm
04:18 12.5 °F /  -10.8 °C 5.9 °F /  -14.5 °C 1016.8 in /  34428.8 hPa SSW 4.7 mph /  7.6 km/h 4.7 mph /  7.6 km/h 64 % 0.0 in /  0 mm
04:23 12.5 °F /  -10.8 °C 5.9 °F /  -14.5 °C 1016.8 in /  34428.8 hPa ENE 5.6 mph /  9 km/h 5.6 mph /  9 km/h 64 % 0.0 in /  0 mm
04:28 12.6 °F /  -10.8 °C 5.9 °F /  -14.5 °C 1016.8 in /  34428.8 hPa West 5.6 mph /  9 km/h 5.6 mph /  9 km/h 64 % 0.0 in /  0 mm
04:33 12.7 °F /  -10.7 °C 6.1 °F /  -14.4 °C 1016.8 in /  34428.8 hPa NW 7.4 mph /  11.9 km/h 7.4 mph /  11.9 km/h 64 % 0.0 in /  0 mm
04:38 12.7 °F /  -10.7 °C 6.1 °F /  -14.4 °C 1016.8 in /  34428.8 hPa South 5.6 mph /  9 km/h 5.6 mph /  9 km/h 64 % 0.0 in /  0 mm
04:43 12.8 °F /  -10.7 °C 6.2 °F /  -14.3 °C 1016.8 in /  34428.8 hPa West 5.8 mph /  9.3 km/h 5.8 mph /  9.3 km/h 64 % 0.0 in /  0 mm
04:48 12.8 °F /  -10.7 °C 6.2 °F /  -14.3 °C 1016.8 in /  34428.8 hPa NW 8.7 mph /  14 km/h 8.7 mph /  14 km/h 64 % 0.0 in /  0 mm
04:53 12.9 °F /  -10.6 °C 6.2 °F /  -14.3 °C 1016.8 in /  34428.8 hPa NNW 9.3 mph /  15 km/h 9.3 mph /  15 km/h 64 % 0.0 in /  0 mm
04:58 12.9 °F /  -10.6 °C 6.2 °F /  -14.3 °C 1016.8 in /  34428.8 hPa WSW 5.6 mph /  9 km/h 5.6 mph /  9 km/h 64 % 0.0 in /  0 mm
05:03 13.0 °F /  -10.6 °C 6.3 °F /  -14.3 °C 1016.8 in /  34428.8 hPa WNW 7.4 mph /  11.9 km/h 7.4 mph /  11.9 km/h 64 % 0.0 in /  0 mm
05:08 13.0 °F /  -10.6 °C 6.3 °F /  -14.3 °C 1016.8 in /  34428.8 hPa WNW 11.1 mph /  17.9 km/h 11.1 mph /  17.9 km/h 64 % 0.0 in /  0 mm
05:13 13.0 °F /  -10.6 °C 6.3 °F /  -14.3 °C 1016.8 in /  34428.8 hPa WNW 7.4 mph /  11.9 km/h 7.4 mph /  11.9 km/h 64 % 0.0 in /  0 mm
05:18 13.0 °F /  -10.6 °C 6.3 °F /  -14.3 °C 1015.8 in /  34395 hPa WNW 11.4 mph /  18.3 km/h 11.4 mph /  18.3 km/h 64 % 0.0 in /  0 mm
05:23 13.0 °F /  -10.6 °C 6.3 °F /  -14.3 °C 1015.8 in /  34395 hPa ENE 13.0 mph /  20.9 km/h 13.0 mph /  20.9 km/h 64 % 0.0 in /  0 mm
05:28 13.0 °F /  -10.6 °C 6.3 °F /  -14.3 °C 1015.8 in /  34395 hPa WNW 7.4 mph /  11.9 km/h 7.4 mph /  11.9 km/h 64 % 0.0 in /  0 mm
05:33 13.0 °F /  -10.6 °C 6.3 °F /  -14.3 °C 1015.8 in /  34395 hPa WNW 13.0 mph /  20.9 km/h 13.0 mph /  20.9 km/h 64 % 0.0 in /  0 mm
05:38 13.1 °F /  -10.5 °C 6.4 °F /  -14.2 °C 1015.8 in /  34395 hPa WSW 13.0 mph /  20.9 km/h 13.0 mph /  20.9 km/h 64 % 0.0 in /  0 mm
05:43 13.1 °F /  -10.5 °C 6.4 °F /  -14.2 °C 1015.8 in /  34395 hPa NW 9.3 mph /  15 km/h 9.3 mph /  15 km/h 64 % 0.0 in /  0 mm
05:48 13.1 °F /  -10.5 °C 6.4 °F /  -14.2 °C 1016.8 in /  34428.8 hPa West 9.3 mph /  15 km/h 9.3 mph /  15 km/h 64 % 0.0 in /  0 mm
05:53 13.1 °F /  -10.5 °C 6.4 °F /  -14.2 °C 1016.8 in /  34428.8 hPa East 9.3 mph /  15 km/h 9.3 mph /  15 km/h 64 % 0.0 in /  0 mm
05:58 13.0 °F /  -10.6 °C 6.3 °F /  -14.3 °C 1016.8 in /  34428.8 hPa NW 5.6 mph /  9 km/h 5.6 mph /  9 km/h 64 % 0.0 in /  0 mm
06:03 13.0 °F /  -10.6 °C 6.3 °F /  -14.3 °C 1016.8 in /  34428.8 hPa WNW 11.1 mph /  17.9 km/h 11.1 mph /  17.9 km/h 64 % 0.0 in /  0 mm
06:08 13.0 °F /  -10.6 °C 6.3 °F /  -14.3 °C 1016.8 in /  34428.8 hPa WNW 10.0 mph /  16.1 km/h 10.0 mph /  16.1 km/h 64 % 0.0 in /  0 mm
06:13 13.0 °F /  -10.6 °C 6.3 °F /  -14.3 °C 1016.8 in /  34428.8 hPa WSW 8.7 mph /  14 km/h 8.7 mph /  14 km/h 64 % 0.0 in /  0 mm
06:18 13.0 °F /  -10.6 °C 6.3 °F /  -14.3 °C 1017.8 in /  34462.7 hPa West 7.6 mph /  12.2 km/h 7.6 mph /  12.2 km/h 64 % 0.0 in /  0 mm
06:23 13.0 °F /  -10.6 °C 6.3 °F /  -14.3 °C 1017.8 in /  34462.7 hPa WSW 9.3 mph /  15 km/h 9.3 mph /  15 km/h 64 % 0.0 in /  0 mm
06:28 13.0 °F /  -10.6 °C 6.3 °F /  -14.3 °C 1017.8 in /  34462.7 hPa West 18.5 mph /  29.8 km/h 18.5 mph /  29.8 km/h 64 % 0.0 in /  0 mm
06:33 13.1 °F /  -10.5 °C 6.4 °F /  -14.2 °C 1016.8 in /  34428.8 hPa NNE 9.3 mph /  15 km/h 9.3 mph /  15 km/h 64 % 0.0 in /  0 mm
06:38 13.0 °F /  -10.6 °C 6.3 °F /  -14.3 °C 1016.8 in /  34428.8 hPa West 9.3 mph /  15 km/h 9.3 mph /  15 km/h 64 % 0.0 in /  0 mm
06:43 12.9 °F /  -10.6 °C 6.2 °F /  -14.3 °C 1016.8 in /  34428.8 hPa WSW 9.3 mph /  15 km/h 9.3 mph /  15 km/h 64 % 0.0 in /  0 mm
06:54 12.9 °F /  -10.6 °C 6.2 °F /  -14.3 °C 1017.8 in /  34462.7 hPa WNW 9.3 mph /  15 km/h 9.3 mph /  15 km/h 64 % 0.0 in /  0 mm
07:04 12.9 °F /  -10.6 °C 6.2 °F /  -14.3 °C 1017.8 in /  34462.7 hPa SW 9.3 mph /  15 km/h 9.3 mph /  15 km/h 64 % 0.0 in /  0 mm
07:14 12.9 °F /  -10.6 °C 6.2 °F /  -14.3 °C 1017.8 in /  34462.7 hPa NW 7.4 mph /  11.9 km/h 7.4 mph /  11.9 km/h 64 % 0.0 in /  0 mm
07:19 12.8 °F /  -10.7 °C 6.2 °F /  -14.3 °C 1017.8 in /  34462.7 hPa WNW 7.4 mph /  11.9 km/h 7.4 mph /  11.9 km/h 64 % 0.0 in /  0 mm
07:39 12.7 °F /  -10.7 °C 6.3 °F /  -14.3 °C 1016.8 in /  34428.8 hPa NNW 14.8 mph /  23.8 km/h 14.8 mph /  23.8 km/h 65 % 0.0 in /  0 mm
07:44 12.8 °F /  -10.7 °C 6.4 °F /  -14.2 °C 1016.8 in /  34428.8 hPa WNW 11.1 mph /  17.9 km/h 11.1 mph /  17.9 km/h 65 % 0.0 in /  0 mm
07:49 12.9 °F /  -10.6 °C 6.5 °F /  -14.2 °C 1017.8 in /  34462.7 hPa SSE 9.3 mph /  15 km/h 9.3 mph /  15 km/h 65 % 0.0 in /  0 mm
07:54 12.9 °F /  -10.6 °C 6.5 °F /  -14.2 °C 1017.8 in /  34462.7 hPa NNE 7.4 mph /  11.9 km/h 7.4 mph /  11.9 km/h 65 % 0.0 in /  0 mm
08:09 12.8 °F /  -10.7 °C 6.4 °F /  -14.2 °C 1017.8 in /  34462.7 hPa NNW 13.0 mph /  20.9 km/h 13.0 mph /  20.9 km/h 65 % 0.0 in /  0 mm
08:19 12.9 °F /  -10.6 °C 6.5 °F /  -14.2 °C 1017.8 in /  34462.7 hPa WNW 5.6 mph /  9 km/h 5.6 mph /  9 km/h 65 % 0.0 in /  0 mm
08:24 12.9 °F /  -10.6 °C 6.5 °F /  -14.2 °C 1017.8 in /  34462.7 hPa South 3.7 mph /  6 km/h 3.7 mph /  6 km/h 65 % 0.0 in /  0 mm
08:34 13.0 °F /  -10.6 °C 6.6 °F /  -14.1 °C 1018.8 in /  34496.6 hPa ENE 7.4 mph /  11.9 km/h 7.4 mph /  11.9 km/h 65 % 0.0 in /  0 mm
08:39 13.0 °F /  -10.6 °C 6.6 °F /  -14.1 °C 1018.8 in /  34496.6 hPa NE 4.2 mph /  6.8 km/h 4.2 mph /  6.8 km/h 65 % 0.0 in /  0 mm
08:54 12.2 °F /  -11 °C 5.8 °F /  -14.6 °C 1018.8 in /  34496.6 hPa ENE 3.7 mph /  6 km/h 3.7 mph /  6 km/h 65 % 0.0 in /  0 mm
09:09 12.7 °F /  -10.7 °C 6.3 °F /  -14.3 °C 1018.8 in /  34496.6 hPa West 3.7 mph /  6 km/h 3.9 mph /  6.3 km/h 65 % 0.0 in /  0 mm
09:14 12.8 °F /  -10.7 °C 6.4 °F /  -14.2 °C 1018.8 in /  34496.6 hPa West 9.3 mph /  15 km/h 9.3 mph /  15 km/h 65 % 0.0 in /  0 mm
09:19 12.9 °F /  -10.6 °C 6.7 °F /  -14.1 °C 1018.8 in /  34496.6 hPa West 6.1 mph /  9.8 km/h 6.1 mph /  9.8 km/h 66 % 0.0 in /  0 mm
09:29 13.0 °F /  -10.6 °C 6.8 °F /  -14 °C 1018.8 in /  34496.6 hPa WNW 5.6 mph /  9 km/h 5.6 mph /  9 km/h 66 % 0.0 in /  0 mm
09:34 13.0 °F /  -10.6 °C 6.8 °F /  -14 °C 1019.9 in /  34533.8 hPa WSW 7.6 mph /  12.2 km/h 7.6 mph /  12.2 km/h 66 % 0.0 in /  0 mm
09:39 12.8 °F /  -10.7 °C 6.4 °F /  -14.2 °C 1019.9 in /  34533.8 hPa ENE 3.7 mph /  6 km/h 3.7 mph /  6 km/h 65 % 0.0 in /  0 mm
09:44 12.2 °F /  -11 °C 5.8 °F /  -14.6 °C 1019.9 in /  34533.8 hPa WNW 3.7 mph /  6 km/h 3.7 mph /  6 km/h 65 % 0.0 in /  0 mm
09:49 12.1 °F /  -11.1 °C 5.7 °F /  -14.6 °C 1019.9 in /  34533.8 hPa WNW 2.3 mph /  3.7 km/h 2.3 mph /  3.7 km/h 65 % 0.0 in /  0 mm
09:54 12.1 °F /  -11.1 °C 5.9 °F /  -14.5 °C 1019.9 in /  34533.8 hPa ENE 1.9 mph /  3.1 km/h 2.3 mph /  3.7 km/h 66 % 0.0 in /  0 mm
09:59 12.3 °F /  -10.9 °C 6.1 °F /  -14.4 °C 1019.9 in /  34533.8 hPa NW 5.6 mph /  9 km/h 5.6 mph /  9 km/h 66 % 0.0 in /  0 mm
10:04 12.5 °F /  -10.8 °C 6.3 °F /  -14.3 °C 1018.8 in /  34496.6 hPa ENE 5.6 mph /  9 km/h 5.6 mph /  9 km/h 66 % 0.0 in /  0 mm
10:09 12.6 °F /  -10.8 °C 6.4 °F /  -14.2 °C 1018.8 in /  34496.6 hPa West 7.4 mph /  11.9 km/h 7.4 mph /  11.9 km/h 66 % 0.0 in /  0 mm
10:14 12.8 °F /  -10.7 °C 6.6 °F /  -14.1 °C 1018.8 in /  34496.6 hPa NW 7.4 mph /  11.9 km/h 7.4 mph /  11.9 km/h 66 % 0.0 in /  0 mm
10:19 12.9 °F /  -10.6 °C 6.7 °F /  -14.1 °C 1019.9 in /  34533.8 hPa SW 5.6 mph /  9 km/h 5.6 mph /  9 km/h 66 % 0.0 in /  0 mm
10:24 13.0 °F /  -10.6 °C 7.0 °F /  -13.9 °C 1019.9 in /  34533.8 hPa NNE 3.7 mph /  6 km/h 3.7 mph /  6 km/h 67 % 0.0 in /  0 mm
10:29 13.1 °F /  -10.5 °C 7.1 °F /  -13.8 °C 1019.9 in /  34533.8 hPa WNW 6.9 mph /  11.1 km/h 6.9 mph /  11.1 km/h 67 % 0.0 in /  0 mm
10:34 13.2 °F /  -10.4 °C 7.2 °F /  -13.8 °C 1019.9 in /  34533.8 hPa ENE 4.2 mph /  6.8 km/h 4.2 mph /  6.8 km/h 67 % 0.0 in /  0 mm
10:39 12.6 °F /  -10.8 °C 6.4 °F /  -14.2 °C 1019.9 in /  34533.8 hPa NNE 11.1 mph /  17.9 km/h 11.1 mph /  17.9 km/h 66 % 0.0 in /  0 mm
10:44 12.1 °F /  -11.1 °C 5.9 °F /  -14.5 °C 1019.9 in /  34533.8 hPa NE 5.6 mph /  9 km/h 5.6 mph /  9 km/h 66 % 0.0 in /  0 mm
10:49 12.0 °F /  -11.1 °C 5.8 °F /  -14.6 °C 1019.9 in /  34533.8 hPa NNE 7.4 mph /  11.9 km/h 7.4 mph /  11.9 km/h 66 % 0.0 in /  0 mm
10:54 11.9 °F /  -11.2 °C 5.7 °F /  -14.6 °C 1019.9 in /  34533.8 hPa North 3.9 mph /  6.3 km/h 3.9 mph /  6.3 km/h 66 % 0.0 in /  0 mm
10:59 12.0 °F /  -11.1 °C 5.8 °F /  -14.6 °C 1019.9 in /  34533.8 hPa NNW 3.7 mph /  6 km/h 3.7 mph /  6 km/h 66 % 0.0 in /  0 mm
11:04 12.0 °F /  -11.1 °C 5.8 °F /  -14.6 °C 1019.9 in /  34533.8 hPa ENE 3.7 mph /  6 km/h 3.7 mph /  6 km/h 66 % 0.0 in /  0 mm
11:09 12.0 °F /  -11.1 °C 5.8 °F /  -14.6 °C 1019.9 in /  34533.8 hPa South 3.7 mph /  6 km/h 3.7 mph /  6 km/h 66 % 0.0 in /  0 mm
11:14 12.0 °F /  -11.1 °C 5.8 °F /  -14.6 °C 1019.9 in /  34533.8 hPa NE 7.4 mph /  11.9 km/h 7.4 mph /  11.9 km/h 66 % 0.0 in /  0 mm
11:19 12.0 °F /  -11.1 °C 5.8 °F /  -14.6 °C 1020.9 in /  34567.7 hPa NW 5.6 mph /  9 km/h 5.6 mph /  9 km/h 66 % 0.0 in /  0 mm
11:24 12.0 °F /  -11.1 °C 6.1 °F /  -14.4 °C 1020.9 in /  34567.7 hPa ENE 5.6 mph /  9 km/h 5.6 mph /  9 km/h 67 % 0.0 in /  0 mm
11:29 12.1 °F /  -11.1 °C 6.2 °F /  -14.3 °C 1020.9 in /  34567.7 hPa NE 3.7 mph /  6 km/h 3.7 mph /  6 km/h 67 % 0.0 in /  0 mm
11:34 12.1 °F /  -11.1 °C 6.2 °F /  -14.3 °C 1020.9 in /  34567.7 hPa ENE 3.7 mph /  6 km/h 3.7 mph /  6 km/h 67 % 0.0 in /  0 mm
11:39 12.2 °F /  -11 °C 6.2 °F /  -14.3 °C 1020.9 in /  34567.7 hPa NW 3.7 mph /  6 km/h 3.7 mph /  6 km/h 67 % 0.0 in /  0 mm
11:44 12.3 °F /  -10.9 °C 6.3 °F /  -14.3 °C 1020.9 in /  34567.7 hPa NNE 3.7 mph /  6 km/h 3.7 mph /  6 km/h 67 % 0.0 in /  0 mm
11:49 12.5 °F /  -10.8 °C 6.6 °F /  -14.1 °C 1020.9 in /  34567.7 hPa WSW 9.3 mph /  15 km/h 9.3 mph /  15 km/h 67 % 0.0 in /  0 mm
11:54 13.0 °F /  -10.6 °C 7.0 °F /  -13.9 °C 1020.9 in /  34567.7 hPa WSW 5.6 mph /  9 km/h 5.6 mph /  9 km/h 67 % 0.0 in /  0 mm
11:59 13.3 °F /  -10.4 °C 7.3 °F /  -13.7 °C 1020.9 in /  34567.7 hPa WSW 9.3 mph /  15 km/h 9.3 mph /  15 km/h 67 % 0.0 in /  0 mm
12:04 13.6 °F /  -10.2 °C 7.6 °F /  -13.6 °C 1019.9 in /  34533.8 hPa WSW 3.9 mph /  6.3 km/h 3.9 mph /  6.3 km/h 67 % 0.0 in /  0 mm
12:09 13.7 °F /  -10.2 °C 7.7 °F /  -13.5 °C 1019.9 in /  34533.8 hPa WSW 9.3 mph /  15 km/h 9.3 mph /  15 km/h 67 % 0.0 in /  0 mm
12:14 13.9 °F /  -10.1 °C 7.9 °F /  -13.4 °C 1019.9 in /  34533.8 hPa SW 11.1 mph /  17.9 km/h 11.1 mph /  17.9 km/h 67 % 0.0 in /  0 mm
12:19 14.0 °F /  -10 °C 7.7 °F /  -13.5 °C 1020.9 in /  34567.7 hPa ENE 3.9 mph /  6.3 km/h 3.9 mph /  6.3 km/h 66 % 0.0 in /  0 mm
12:24 13.6 °F /  -10.2 °C 7.2 °F /  -13.8 °C 1020.9 in /  34567.7 hPa ENE 5.6 mph /  9 km/h 5.6 mph /  9 km/h 65 % 0.0 in /  0 mm
12:29 13.4 °F /  -10.3 °C 7.2 °F /  -13.8 °C 1020.9 in /  34567.7 hPa ENE 4.2 mph /  6.8 km/h 4.2 mph /  6.8 km/h 66 % 0.0 in /  0 mm
12:34 13.3 °F /  -10.4 °C 7.1 °F /  -13.8 °C 1021.9 in /  34601.5 hPa NNE 7.4 mph /  11.9 km/h 7.4 mph /  11.9 km/h 66 % 0.0 in /  0 mm
12:39 13.3 °F /  -10.4 °C 7.1 °F /  -13.8 °C 1021.9 in /  34601.5 hPa ENE 4.2 mph /  6.8 km/h 4.2 mph /  6.8 km/h 66 % 0.0 in /  0 mm
12:44 13.4 °F /  -10.3 °C 7.2 °F /  -13.8 °C 1021.9 in /  34601.5 hPa East 4.2 mph /  6.8 km/h 4.2 mph /  6.8 km/h 66 % 0.0 in /  0 mm
12:49 13.5 °F /  -10.3 °C 7.3 °F /  -13.7 °C 1020.9 in /  34567.7 hPa ENE 3.7 mph /  6 km/h 3.7 mph /  6 km/h 66 % 0.0 in /  0 mm
12:54 13.6 °F /  -10.2 °C 7.4 °F /  -13.7 °C 1020.9 in /  34567.7 hPa NNE 4.7 mph /  7.6 km/h 4.7 mph /  7.6 km/h 66 % 0.0 in /  0 mm
12:59 13.7 °F /  -10.2 °C 7.2 °F /  -13.8 °C 1020.9 in /  34567.7 hPa ENE 3.9 mph /  6.3 km/h 3.9 mph /  6.3 km/h 65 % 0.0 in /  0 mm
13:04 13.8 °F /  -10.1 °C 7.3 °F /  -13.7 °C 1021.9 in /  34601.5 hPa ENE 5.6 mph /  9 km/h 5.6 mph /  9 km/h 65 % 0.0 in /  0 mm
13:09 14.0 °F /  -10 °C 7.5 °F /  -13.6 °C 1021.9 in /  34601.5 hPa NE 3.9 mph /  6.3 km/h 3.9 mph /  6.3 km/h 65 % 0.0 in /  0 mm
13:14 14.1 °F /  -9.9 °C 7.6 °F /  -13.6 °C 1021.9 in /  34601.5 hPa ENE 4.2 mph /  6.8 km/h 4.2 mph /  6.8 km/h 65 % 0.0 in /  0 mm
13:19 14.3 °F /  -9.8 °C 7.8 °F /  -13.4 °C 1020.9 in /  34567.7 hPa NNE 5.6 mph /  9 km/h 5.6 mph /  9 km/h 65 % 0.0 in /  0 mm
13:24 14.4 °F /  -9.8 °C 7.9 °F /  -13.4 °C 1020.9 in /  34567.7 hPa NNE 7.4 mph /  11.9 km/h 7.4 mph /  11.9 km/h 65 % 0.0 in /  0 mm
13:29 14.3 °F /  -9.8 °C 7.6 °F /  -13.6 °C 1020.9 in /  34567.7 hPa NE 9.3 mph /  15 km/h 9.3 mph /  15 km/h 64 % 0.0 in /  0 mm
13:34 14.4 °F /  -9.8 °C 7.7 °F /  -13.5 °C 1021.9 in /  34601.5 hPa ENE 7.4 mph /  11.9 km/h 7.4 mph /  11.9 km/h 64 % 0.0 in /  0 mm
13:39 14.7 °F /  -9.6 °C 7.9 °F /  -13.4 °C 1021.9 in /  34601.5 hPa NNE 5.6 mph /  9 km/h 5.6 mph /  9 km/h 64 % 0.0 in /  0 mm
13:44 14.9 °F /  -9.5 °C 8.2 °F /  -13.2 °C 1021.9 in /  34601.5 hPa NNE 4.2 mph /  6.8 km/h 4.2 mph /  6.8 km/h 64 % 0.0 in /  0 mm
13:49 15.1 °F /  -9.4 °C 8.3 °F /  -13.2 °C 1021.9 in /  34601.5 hPa NE 7.4 mph /  11.9 km/h 7.4 mph /  11.9 km/h 64 % 0.0 in /  0 mm
13:54 15.4 °F /  -9.2 °C 8.6 °F /  -13 °C 1021.9 in /  34601.5 hPa NNE 3.7 mph /  6 km/h 3.7 mph /  6 km/h 64 % 0.0 in /  0 mm
13:59 15.7 °F /  -9.1 °C 8.7 °F /  -12.9 °C 1021.9 in /  34601.5 hPa NNE 5.6 mph /  9 km/h 5.6 mph /  9 km/h 63 % 0.0 in /  0 mm
14:04 15.7 °F /  -9.1 °C 8.7 °F /  -12.9 °C 1021.9 in /  34601.5 hPa WNW 4.2 mph /  6.8 km/h 4.2 mph /  6.8 km/h 63 % 0.0 in /  0 mm
14:09 15.9 °F /  -8.9 °C 8.8 °F /  -12.9 °C 1021.9 in /  34601.5 hPa WNW 5.6 mph /  9 km/h 5.6 mph /  9 km/h 63 % 0.0 in /  0 mm
14:14 16.1 °F /  -8.8 °C 8.8 °F /  -12.9 °C 1021.9 in /  34601.5 hPa NE 7.4 mph /  11.9 km/h 7.4 mph /  11.9 km/h 62 % 0.0 in /  0 mm
14:19 16.2 °F /  -8.8 °C 8.9 °F /  -12.8 °C 1021.9 in /  34601.5 hPa West 7.4 mph /  11.9 km/h 7.4 mph /  11.9 km/h 62 % 0.0 in /  0 mm
14:24 16.3 °F /  -8.7 °C 8.8 °F /  -12.9 °C 1021.9 in /  34601.5 hPa NNE 4.7 mph /  7.6 km/h 4.7 mph /  7.6 km/h 61 % 0.0 in /  0 mm
14:29 16.3 °F /  -8.7 °C 8.8 °F /  -12.9 °C 1021.9 in /  34601.5 hPa NE 5.6 mph /  9 km/h 5.6 mph /  9 km/h 61 % 0.0 in /  0 mm
14:34 16.5 °F /  -8.6 °C 9.2 °F /  -12.7 °C 1021.9 in /  34601.5 hPa Calm     62 % 0.0 in /  0 mm
14:39 16.6 °F /  -8.6 °C 9.1 °F /  -12.7 °C 1021.9 in /  34601.5 hPa NW 1.9 mph /  3.1 km/h 1.9 mph /  3.1 km/h 61 % 0.0 in /  0 mm
14:44 16.7 °F /  -8.5 °C 9.1 °F /  -12.7 °C 1021.9 in /  34601.5 hPa NNE 2.3 mph /  3.7 km/h   61 % 0.0 in /  0 mm
14:49 16.7 °F /  -8.5 °C 9.1 °F /  -12.7 °C 1021.9 in /  34601.5 hPa NNE 4.2 mph /  6.8 km/h 4.2 mph /  6.8 km/h 61 % 0.0 in /  0 mm
14:54 16.7 °F /  -8.5 °C 9.1 °F /  -12.7 °C 1021.9 in /  34601.5 hPa NW 3.7 mph /  6 km/h 3.7 mph /  6 km/h 61 % 0.0 in /  0 mm
14:59 16.8 °F /  -8.4 °C 9.2 °F /  -12.7 °C 1021.9 in /  34601.5 hPa NNW 1.9 mph /  3.1 km/h 1.9 mph /  3.1 km/h 61 % 0.0 in /  0 mm
15:04 17.0 °F /  -8.3 °C 9.2 °F /  -12.7 °C 1020.9 in /  34567.7 hPa NW 5.6 mph /  9 km/h 5.6 mph /  9 km/h 60 % 0.0 in /  0 mm
15:09 17.1 °F /  -8.3 °C 9.0 °F /  -12.8 °C 1020.9 in /  34567.7 hPa NW 3.7 mph /  6 km/h 3.7 mph /  6 km/h 59 % 0.0 in /  0 mm
15:14 17.1 °F /  -8.3 °C 9.0 °F /  -12.8 °C 1020.9 in /  34567.7 hPa NE 3.9 mph /  6.3 km/h   59 % 0.0 in /  0 mm
15:19 17.1 °F /  -8.3 °C 9.0 °F /  -12.8 °C 1020.9 in /  34567.7 hPa NE 3.9 mph /  6.3 km/h 3.9 mph /  6.3 km/h 59 % 0.0 in /  0 mm
15:24 17.1 °F /  -8.3 °C 9.0 °F /  -12.8 °C 1020.9 in /  34567.7 hPa NNE 2.3 mph /  3.7 km/h 2.3 mph /  3.7 km/h 59 % 0.0 in /  0 mm
15:29 17.2 °F /  -8.2 °C 9.1 °F /  -12.7 °C 1020.9 in /  34567.7 hPa ENE 5.6 mph /  9 km/h 5.6 mph /  9 km/h 59 % 0.0 in /  0 mm
15:34 17.3 °F /  -8.2 °C 9.2 °F /  -12.7 °C 1020.9 in /  34567.7 hPa NNW 3.7 mph /  6 km/h 3.7 mph /  6 km/h 59 % 0.0 in /  0 mm
15:39 17.5 °F /  -8.1 °C 9.4 °F /  -12.6 °C 1020.9 in /  34567.7 hPa North 2.3 mph /  3.7 km/h   59 % 0.0 in /  0 mm
15:44 17.5 °F /  -8.1 °C 9.4 °F /  -12.6 °C 1020.9 in /  34567.7 hPa NW 2.6 mph /  4.2 km/h 2.6 mph /  4.2 km/h 59 % 0.0 in /  0 mm
15:49 17.6 °F /  -8 °C 9.5 °F /  -12.5 °C 1020.9 in /  34567.7 hPa Calm     59 % 0.0 in /  0 mm
15:54 18.0 °F /  -7.8 °C 9.9 °F /  -12.3 °C 1020.9 in /  34567.7 hPa Calm     59 % 0.0 in /  0 mm
15:59 18.1 °F /  -7.7 °C 9.9 °F /  -12.3 °C 1020.9 in /  34567.7 hPa North 3.7 mph /  6 km/h 3.7 mph /  6 km/h 59 % 0.0 in /  0 mm
16:04 18.4 °F /  -7.6 °C 10.2 °F /  -12.1 °C 1020.9 in /  34567.7 hPa NNW 7.4 mph /  11.9 km/h 7.4 mph /  11.9 km/h 59 % 0.0 in /  0 mm
16:09 18.7 °F /  -7.4 °C 10.5 °F /  -11.9 °C 1020.9 in /  34567.7 hPa SW 5.6 mph /  9 km/h 5.6 mph /  9 km/h 59 % 0.0 in /  0 mm
16:14 19.8 °F /  -6.8 °C 11.1 °F /  -11.6 °C 1020.9 in /  34567.7 hPa WNW 11.1 mph /  17.9 km/h 11.1 mph /  17.9 km/h 57 % 0.0 in /  0 mm
16:19 20.0 °F /  -6.7 °C 10.7 °F /  -11.8 °C 1021.9 in /  34601.5 hPa WNW 7.4 mph /  11.9 km/h 7.4 mph /  11.9 km/h 55 % 0.0 in /  0 mm
16:21 20.0 °F /  -6.7 °C 10.7 °F /  -11.8 °C 1021.9 in /  34601.5 hPa West 7.4 mph /  11.9 km/h 7.4 mph /  11.9 km/h 55 % 0.0 in /  0 mm
16:26 20.2 °F /  -6.6 °C 10.6 °F /  -11.9 °C 1021.9 in /  34601.5 hPa SSW 5.6 mph /  9 km/h 5.6 mph /  9 km/h 54 % 0.0 in /  0 mm
16:31 20.4 °F /  -6.4 °C 10.8 °F /  -11.8 °C 1021.9 in /  34601.5 hPa WSW 9.3 mph /  15 km/h 9.3 mph /  15 km/h 54 % 0.0 in /  0 mm
16:36 20.7 °F /  -6.3 °C 10.8 °F /  -11.8 °C 1020.9 in /  34567.7 hPa South 3.7 mph /  6 km/h 3.7 mph /  6 km/h 53 % 0.0 in /  0 mm
16:41 20.8 °F /  -6.2 °C 10.9 °F /  -11.7 °C 1020.9 in /  34567.7 hPa SW 3.7 mph /  6 km/h 3.7 mph /  6 km/h 53 % 0.0 in /  0 mm
16:46 20.9 °F /  -6.2 °C 10.9 °F /  -11.7 °C 1020.9 in /  34567.7 hPa SSW 6.1 mph /  9.8 km/h 6.1 mph /  9.8 km/h 53 % 0.0 in /  0 mm
16:51 20.9 °F /  -6.2 °C 10.9 °F /  -11.7 °C 1020.9 in /  34567.7 hPa West 7.4 mph /  11.9 km/h 7.4 mph /  11.9 km/h 53 % 0.0 in /  0 mm
16:56 20.8 °F /  -6.2 °C 10.6 °F /  -11.9 °C 1020.9 in /  34567.7 hPa West 9.3 mph /  15 km/h 9.3 mph /  15 km/h 52 % 0.0 in /  0 mm
17:01 20.7 °F /  -6.3 °C 10.5 °F /  -11.9 °C 1020.9 in /  34567.7 hPa NW 5.6 mph /  9 km/h 5.6 mph /  9 km/h 52 % 0.0 in /  0 mm
17:06 20.6 °F /  -6.3 °C 10.4 °F /  -12 °C 1021.9 in /  34601.5 hPa NW 5.6 mph /  9 km/h 5.6 mph /  9 km/h 52 % 0.0 in /  0 mm
17:11 20.5 °F /  -6.4 °C 10.3 °F /  -12.1 °C 1021.9 in /  34601.5 hPa SW 9.3 mph /  15 km/h 9.3 mph /  15 km/h 52 % 0.0 in /  0 mm
17:16 20.4 °F /  -6.4 °C 9.9 °F /  -12.3 °C 1021.9 in /  34601.5 hPa West 9.3 mph /  15 km/h 9.3 mph /  15 km/h 51 % 0.0 in /  0 mm
17:21 20.2 °F /  -6.6 °C 9.7 °F /  -12.4 °C 1021.9 in /  34601.5 hPa WSW 3.9 mph /  6.3 km/h 3.9 mph /  6.3 km/h 51 % 0.0 in /  0 mm
17:26 20.1 °F /  -6.6 °C 9.7 °F /  -12.4 °C 1021.9 in /  34601.5 hPa West 13.0 mph /  20.9 km/h 13.0 mph /  20.9 km/h 51 % 0.0 in /  0 mm
17:31 19.9 °F /  -6.7 °C 9.4 °F /  -12.6 °C 1021.9 in /  34601.5 hPa WNW 5.6 mph /  9 km/h 5.6 mph /  9 km/h 51 % 0.0 in /  0 mm
17:36 19.7 °F /  -6.8 °C 9.3 °F /  -12.6 °C 1020.9 in /  34567.7 hPa West 11.1 mph /  17.9 km/h 11.1 mph /  17.9 km/h 51 % 0.0 in /  0 mm
17:41 19.4 °F /  -7 °C 9.0 °F /  -12.8 °C 1020.9 in /  34567.7 hPa WSW 9.3 mph /  15 km/h 9.3 mph /  15 km/h 51 % 0.0 in /  0 mm
17:46 19.3 °F /  -7.1 °C 8.6 °F /  -13 °C 1020.9 in /  34567.7 hPa WNW 9.3 mph /  15 km/h 9.3 mph /  15 km/h 50 % 0.0 in /  0 mm
17:51 19.2 °F /  -7.1 °C 8.5 °F /  -13.1 °C 1021.9 in /  34601.5 hPa West 9.3 mph /  15 km/h 9.3 mph /  15 km/h 50 % 0.0 in /  0 mm
17:56 19.0 °F /  -7.2 °C 8.3 °F /  -13.2 °C 1021.9 in /  34601.5 hPa West 3.7 mph /  6 km/h 3.7 mph /  6 km/h 50 % 0.0 in /  0 mm
18:01 18.7 °F /  -7.4 °C 8.3 °F /  -13.2 °C 1021.9 in /  34601.5 hPa SW 3.7 mph /  6 km/h 3.7 mph /  6 km/h 51 % 0.0 in /  0 mm
18:06 18.6 °F /  -7.4 °C 8.3 °F /  -13.2 °C 1020.9 in /  34567.7 hPa West 7.4 mph /  11.9 km/h 7.4 mph /  11.9 km/h 51 % 0.0 in /  0 mm
18:11 18.5 °F /  -7.5 °C 8.2 °F /  -13.2 °C 1020.9 in /  34567.7 hPa WSW 9.3 mph /  15 km/h 9.3 mph /  15 km/h 51 % 0.0 in /  0 mm
18:16 18.3 °F /  -7.6 °C 8.0 °F /  -13.3 °C 1020.9 in /  34567.7 hPa WSW 5.8 mph /  9.3 km/h 5.8 mph /  9.3 km/h 51 % 0.0 in /  0 mm
18:21 18.2 °F /  -7.7 °C 8.2 °F /  -13.2 °C 1021.9 in /  34601.5 hPa West 9.3 mph /  15 km/h 9.3 mph /  15 km/h 52 % 0.0 in /  0 mm
18:26 18.0 °F /  -7.8 °C 8.0 °F /  -13.3 °C 1021.9 in /  34601.5 hPa WSW 5.6 mph /  9 km/h 5.6 mph /  9 km/h 52 % 0.0 in /  0 mm
18:31 17.9 °F /  -7.8 °C 7.9 °F /  -13.4 °C 1021.9 in /  34601.5 hPa WNW 9.3 mph /  15 km/h 9.3 mph /  15 km/h 52 % 0.0 in /  0 mm
18:36 17.8 °F /  -7.9 °C 7.8 °F /  -13.4 °C 1021.9 in /  34601.5 hPa SW 5.6 mph /  9 km/h 5.6 mph /  9 km/h 52 % 0.0 in /  0 mm
18:41 17.8 °F /  -7.9 °C 7.8 °F /  -13.4 °C 1021.9 in /  34601.5 hPa West 11.1 mph /  17.9 km/h 11.1 mph /  17.9 km/h 52 % 0.0 in /  0 mm
18:46 17.7 °F /  -7.9 °C 7.7 °F /  -13.5 °C 1021.9 in /  34601.5 hPa WSW 5.6 mph /  9 km/h 5.6 mph /  9 km/h 52 % 0.0 in /  0 mm
18:51 17.5 °F /  -8.1 °C 7.6 °F /  -13.6 °C 1020.9 in /  34567.7 hPa SSW 7.4 mph /  11.9 km/h 7.4 mph /  11.9 km/h 52 % 0.0 in /  0 mm
18:56 17.2 °F /  -8.2 °C 7.3 °F /  -13.7 °C 1020.9 in /  34567.7 hPa SSW 7.4 mph /  11.9 km/h 7.4 mph /  11.9 km/h 52 % 0.0 in /  0 mm
19:01 17.1 °F /  -8.3 °C 7.4 °F /  -13.7 °C 1020.9 in /  34567.7 hPa South 11.1 mph /  17.9 km/h 11.1 mph /  17.9 km/h 53 % 0.0 in /  0 mm
19:06 17.1 °F /  -8.3 °C 7.4 °F /  -13.7 °C 1021.9 in /  34601.5 hPa WSW 3.9 mph /  6.3 km/h 3.9 mph /  6.3 km/h 53 % 0.0 in /  0 mm
19:11 16.9 °F /  -8.4 °C 7.5 °F /  -13.6 °C 1021.9 in /  34601.5 hPa WNW 7.9 mph /  12.7 km/h 7.9 mph /  12.7 km/h 54 % 0.0 in /  0 mm
19:16 16.9 °F /  -8.4 °C 7.5 °F /  -13.6 °C 1021.9 in /  34601.5 hPa West 5.6 mph /  9 km/h 5.6 mph /  9 km/h 54 % 0.0 in /  0 mm
19:21 16.7 °F /  -8.5 °C 7.3 °F /  -13.7 °C 1021.9 in /  34601.5 hPa WNW 7.4 mph /  11.9 km/h 7.4 mph /  11.9 km/h 54 % 0.0 in /  0 mm
19:26 16.6 °F /  -8.6 °C 7.2 °F /  -13.8 °C 1021.9 in /  34601.5 hPa SW 5.6 mph /  9 km/h 5.6 mph /  9 km/h 54 % 0.0 in /  0 mm
19:31 16.5 °F /  -8.6 °C 7.4 °F /  -13.7 °C 1021.9 in /  34601.5 hPa SW 11.1 mph /  17.9 km/h 11.1 mph /  17.9 km/h 55 % 0.0 in /  0 mm
19:36 16.4 °F /  -8.7 °C 7.3 °F /  -13.7 °C 1022.9 in /  34635.4 hPa WSW 9.3 mph /  15 km/h 9.3 mph /  15 km/h 55 % 0.0 in /  0 mm
19:41 16.5 °F /  -8.6 °C 7.4 °F /  -13.7 °C 1022.9 in /  34635.4 hPa WSW 7.4 mph /  11.9 km/h 7.4 mph /  11.9 km/h 55 % 0.0 in /  0 mm
19:46 16.3 °F /  -8.7 °C 7.2 °F /  -13.8 °C 1022.9 in /  34635.4 hPa WSW 9.3 mph /  15 km/h 9.3 mph /  15 km/h 55 % 0.0 in /  0 mm
19:51 16.3 °F /  -8.7 °C 7.2 °F /  -13.8 °C 1021.9 in /  34601.5 hPa West 5.6 mph /  9 km/h 5.6 mph /  9 km/h 55 % 0.0 in /  0 mm
19:56 16.2 °F /  -8.8 °C 7.2 °F /  -13.8 °C 1021.9 in /  34601.5 hPa WSW 13.0 mph /  20.9 km/h 13.0 mph /  20.9 km/h 55 % 0.0 in /  0 mm
20:01 16.2 °F /  -8.8 °C 7.2 °F /  -13.8 °C 1021.9 in /  34601.5 hPa WSW 7.4 mph /  11.9 km/h 7.4 mph /  11.9 km/h 55 % 0.0 in /  0 mm
20:06 16.1 °F /  -8.8 °C 7.3 °F /  -13.7 °C 1022.9 in /  34635.4 hPa WSW 6.1 mph /  9.8 km/h 6.1 mph /  9.8 km/h 56 % 0.0 in /  0 mm
20:11 16.0 °F /  -8.9 °C 7.2 °F /  -13.8 °C 1022.9 in /  34635.4 hPa WSW 9.3 mph /  15 km/h 9.3 mph /  15 km/h 56 % 0.0 in /  0 mm
20:16 15.7 °F /  -9.1 °C 6.9 °F /  -13.9 °C 1022.9 in /  34635.4 hPa WSW 7.4 mph /  11.9 km/h 7.4 mph /  11.9 km/h 56 % 0.0 in /  0 mm
20:21 15.6 °F /  -9.1 °C 6.8 °F /  -14 °C 1022.9 in /  34635.4 hPa WSW 7.4 mph /  11.9 km/h 7.4 mph /  11.9 km/h 56 % 0.0 in /  0 mm
20:26 15.5 °F /  -9.2 °C 6.8 °F /  -14 °C 1022.9 in /  34635.4 hPa West 7.4 mph /  11.9 km/h 7.4 mph /  11.9 km/h 56 % 0.0 in /  0 mm
20:31 15.4 °F /  -9.2 °C 6.9 °F /  -13.9 °C 1022.9 in /  34635.4 hPa West 7.4 mph /  11.9 km/h 7.4 mph /  11.9 km/h 57 % 0.0 in /  0 mm
20:36 15.4 °F /  -9.2 °C 6.9 °F /  -13.9 °C 1022.9 in /  34635.4 hPa WNW 7.4 mph /  11.9 km/h 7.4 mph /  11.9 km/h 57 % 0.0 in /  0 mm
20:41 15.4 °F /  -9.2 °C 6.9 °F /  -13.9 °C 1022.9 in /  34635.4 hPa West 5.6 mph /  9 km/h 5.6 mph /  9 km/h 57 % 0.0 in /  0 mm
20:46 15.4 °F /  -9.2 °C 6.9 °F /  -13.9 °C 1022.9 in /  34635.4 hPa West 7.4 mph /  11.9 km/h 7.4 mph /  11.9 km/h 57 % 0.0 in /  0 mm
20:51 15.3 °F /  -9.3 °C 6.8 °F /  -14 °C 1022.9 in /  34635.4 hPa WNW 5.6 mph /  9 km/h 5.6 mph /  9 km/h 57 % 0.0 in /  0 mm
20:56 15.2 °F /  -9.3 °C 6.7 °F /  -14.1 °C 1022.9 in /  34635.4 hPa WSW 5.6 mph /  9 km/h 5.6 mph /  9 km/h 57 % 0.0 in /  0 mm
21:01 15.2 °F /  -9.3 °C 7.0 °F /  -13.9 °C 1022.9 in /  34635.4 hPa West 10.3 mph /  16.6 km/h 10.3 mph /  16.6 km/h 58 % 0.0 in /  0 mm
21:06 15.2 °F /  -9.3 °C 7.0 °F /  -13.9 °C 1021.9 in /  34601.5 hPa West 9.7 mph /  15.6 km/h 9.7 mph /  15.6 km/h 58 % 0.0 in /  0 mm
21:11 15.2 °F /  -9.3 °C 7.0 °F /  -13.9 °C 1021.9 in /  34601.5 hPa SW 13.0 mph /  20.9 km/h 13.0 mph /  20.9 km/h 58 % 0.0 in /  0 mm
21:21 15.3 °F /  -9.3 °C 7.1 °F /  -13.8 °C 1021.9 in /  34601.5 hPa West 16.7 mph /  26.9 km/h 16.7 mph /  26.9 km/h 58 % 0.0 in /  0 mm
21:26 15.2 °F /  -9.3 °C 7.0 °F /  -13.9 °C 1021.9 in /  34601.5 hPa WSW 14.8 mph /  23.8 km/h 14.8 mph /  23.8 km/h 58 % 0.0 in /  0 mm
21:31 15.2 °F /  -9.3 °C 7.0 °F /  -13.9 °C 1021.9 in /  34601.5 hPa West 13.0 mph /  20.9 km/h 13.0 mph /  20.9 km/h 58 % 0.0 in /  0 mm
21:36 15.1 °F /  -9.4 °C 6.6 °F /  -14.1 °C 1021.9 in /  34601.5 hPa West 11.1 mph /  17.9 km/h 11.1 mph /  17.9 km/h 57 % 0.0 in /  0 mm
21:41 15.1 °F /  -9.4 °C 6.6 °F /  -14.1 °C 1021.9 in /  34601.5 hPa West 13.0 mph /  20.9 km/h 13.0 mph /  20.9 km/h 57 % 0.0 in /  0 mm
21:46 15.1 °F /  -9.4 °C 6.6 °F /  -14.1 °C 1021.9 in /  34601.5 hPa West 14.0 mph /  22.5 km/h 14.0 mph /  22.5 km/h 57 % 0.0 in /  0 mm
21:56 15.0 °F /  -9.4 °C 6.6 °F /  -14.1 °C 1022.9 in /  34635.4 hPa West 16.7 mph /  26.9 km/h 16.7 mph /  26.9 km/h 57 % 0.0 in /  0 mm
22:01 14.9 °F /  -9.5 °C 6.4 °F /  -14.2 °C 1021.9 in /  34601.5 hPa West 14.0 mph /  22.5 km/h 14.0 mph /  22.5 km/h 57 % 0.0 in /  0 mm
22:26 14.5 °F /  -9.7 °C 6.3 °F /  -14.3 °C 1022.9 in /  34635.4 hPa WSW 9.3 mph /  15 km/h 9.3 mph /  15 km/h 58 % 0.0 in /  0 mm
22:36 14.4 °F /  -9.8 °C 6.2 °F /  -14.3 °C 1021.9 in /  34601.5 hPa West 16.7 mph /  26.9 km/h 16.7 mph /  26.9 km/h 58 % 0.0 in /  0 mm
22:41 14.3 °F /  -9.8 °C 6.4 °F /  -14.2 °C 1021.9 in /  34601.5 hPa West 13.0 mph /  20.9 km/h 13.0 mph /  20.9 km/h 59 % 0.0 in /  0 mm
22:46 14.2 °F /  -9.9 °C 6.3 °F /  -14.3 °C 1022.9 in /  34635.4 hPa West 11.1 mph /  17.9 km/h 11.1 mph /  17.9 km/h 59 % 0.0 in /  0 mm
22:51 14.1 °F /  -9.9 °C 6.2 °F /  -14.3 °C 1022.9 in /  34635.4 hPa West 5.6 mph /  9 km/h 5.6 mph /  9 km/h 59 % 0.0 in /  0 mm
22:56 14.0 °F /  -10 °C 6.1 °F /  -14.4 °C 1022.9 in /  34635.4 hPa West 5.3 mph /  8.5 km/h 6.4 mph /  10.3 km/h 59 % 0.0 in /  0 mm
23:01 14.0 °F /  -10 °C 6.1 °F /  -14.4 °C 1022.9 in /  34635.4 hPa WSW 5.6 mph /  9 km/h 5.6 mph /  9 km/h 59 % 0.0 in /  0 mm
23:07 13.8 °F /  -10.1 °C 5.9 °F /  -14.5 °C 1022.9 in /  34635.4 hPa WSW 5.6 mph /  9 km/h 5.6 mph /  9 km/h 59 % 0.0 in /  0 mm
23:12 13.7 °F /  -10.2 °C 5.8 °F /  -14.6 °C 1022.9 in /  34635.4 hPa West 3.7 mph /  6 km/h 3.9 mph /  6.3 km/h 59 % 0.0 in /  0 mm
23:17 13.7 °F /  -10.2 °C 5.8 °F /  -14.6 °C 1022.9 in /  34635.4 hPa West 5.6 mph /  9 km/h 5.6 mph /  9 km/h 59 % 0.0 in /  0 mm
23:22 13.7 °F /  -10.2 °C 5.8 °F /  -14.6 °C 1022.9 in /  34635.4 hPa WSW 7.4 mph /  11.9 km/h 7.4 mph /  11.9 km/h 59 % 0.0 in /  0 mm
23:27 13.7 °F /  -10.2 °C 6.1 °F /  -14.4 °C 1022.9 in /  34635.4 hPa West 7.6 mph /  12.2 km/h 7.6 mph /  12.2 km/h 60 % 0.0 in /  0 mm
23:32 13.7 °F /  -10.2 °C 6.1 °F /  -14.4 °C 1022.9 in /  34635.4 hPa WSW 11.1 mph /  17.9 km/h 11.1 mph /  17.9 km/h 60 % 0.0 in /  0 mm
23:37 13.7 °F /  -10.2 °C 6.1 °F /  -14.4 °C 1022.9 in /  34635.4 hPa WSW 7.4 mph /  11.9 km/h 7.4 mph /  11.9 km/h 60 % 0.0 in /  0 mm
23:38 13.7 °F /  -10.2 °C 6.1 °F /  -14.4 °C 1022.9 in /  34635.4 hPa WSW 10.3 mph /  16.6 km/h 10.3 mph /  16.6 km/h 60 % 0.0 in /  0 mm
23:43 13.7 °F /  -10.2 °C 6.1 °F /  -14.4 °C 1022.9 in /  34635.4 hPa West 13.0 mph /  20.9 km/h 13.0 mph /  20.9 km/h 60 % 0.0 in /  0 mm
23:53 13.7 °F /  -10.2 °C 6.1 °F /  -14.4 °C 1022.9 in /  34635.4 hPa WSW 9.3 mph /  15 km/h 9.3 mph /  15 km/h 60 % 0.0 in /  0 mm
Meteo Sesrovires
Elogis d' Weather Underground - 1.75 mb

Guio original per  Jim McMurry - jmcmurry@mwt.net Adaptat per a la plantilla per  Wim van der Kuil - Leuven-Template.eu

Trobareu la nostra informacio del temps tambe a:

Weather Underground

AWEKAS